PWSweather.com
Personal Weather Stations
Station Observations
AC5CV
Greenleaf Peninsula, Waco, TX 76710

Greenleaf PeninsulaWaco, TX 76710

Lat: 31.565, Lon: -97.198

Elevation: 570

Station Type: Ambient WS2080

http://johnchamber.dyndns.info/

High Low Average
Temperature 90.8°F32.7°C 72.1°F22.3°C 81.0°F27.2°C
Dew Point 71.8°F22.1°C 54.6°F12.6°C 66.7°F19.3°C
Winds 7.0 mph 11.3 kmh Calm Calm 2.0 mph ESE3.2 kmh ESE
Wind Gusts 15.0 mph24.1 kmh -- 6.0 mph9.7 kmh
Humidity 92% 32% 64%
Pressure 29.35 in993.9 mb 29.14 in986.8 mb -
Precipitation 0.00 in0.0 mm - -
Hour Temp Dew Point Humidity Winds Wind Gusts Pressure Precip Precip Rate Daily Precip Total
12:00 AM 78.8°F26.0°C 69.1°F20.6°C 72% 0.3 mph NE0.5 kmh NE 2.5 mph4.0 kmh 29.36 in994.2 mb 0.00 in0.0 mm 0.00 in0.0 mm 0.00 in0.0 mm
12:05 AM 78.6°F25.9°C 69.4°F20.8°C 74% Calm Calm -- 29.35 in993.9 mb 0.00 in0.0 mm 0.00 in0.0 mm 0.00 in0.0 mm
12:10 AM 78.6°F25.9°C 69.6°F20.9°C 74% 0.3 mph NE0.5 kmh NE 2.5 mph4.0 kmh 29.35 in993.9 mb 0.00 in0.0 mm 0.00 in0.0 mm 0.00 in0.0 mm
12:15 AM 78.6°F25.9°C 69.6°F20.9°C 74% 0.1 mph NE0.2 kmh NE 2.5 mph4.0 kmh 29.36 in994.2 mb 0.00 in0.0 mm 0.00 in0.0 mm 0.00 in0.0 mm
12:20 AM 78.6°F25.9°C 69.7°F20.9°C 74% 0.4 mph ENE0.6 kmh ENE 2.5 mph4.0 kmh 29.36 in994.2 mb 0.00 in0.0 mm 0.00 in0.0 mm 0.00 in0.0 mm
12:25 AM 78.5°F25.8°C 69.9°F21.1°C 75% 0.5 mph ENE0.8 kmh ENE 2.5 mph4.0 kmh 29.36 in994.2 mb 0.00 in0.0 mm 0.00 in0.0 mm 0.00 in0.0 mm
12:30 AM 77.8°F25.4°C 69.3°F20.7°C 75% 0.1 mph ENE0.2 kmh ENE 2.5 mph4.0 kmh 29.35 in993.9 mb 0.00 in0.0 mm 0.00 in0.0 mm 0.00 in0.0 mm
12:35 AM 77.2°F25.1°C 69.0°F20.6°C 76% 0.8 mph ENE1.3 kmh ENE 2.5 mph4.0 kmh 29.35 in993.9 mb 0.00 in0.0 mm 0.00 in0.0 mm 0.00 in0.0 mm
12:40 AM 77.2°F25.1°C 69.0°F20.6°C 76% 0.3 mph NE0.5 kmh NE 2.5 mph4.0 kmh 29.35 in993.9 mb 0.00 in0.0 mm 0.00 in0.0 mm 0.00 in0.0 mm
12:45 AM 77.2°F25.1°C 69.0°F20.6°C 76% 0.3 mph NE0.5 kmh NE 2.5 mph4.0 kmh 29.35 in993.9 mb 0.00 in0.0 mm 0.00 in0.0 mm 0.00 in0.0 mm
12:50 AM 77.2°F25.1°C 69.0°F20.6°C 76% 0.1 mph WNW0.2 kmh WNW 2.5 mph4.0 kmh 29.35 in993.9 mb 0.00 in0.0 mm 0.00 in0.0 mm 0.00 in0.0 mm
12:55 AM 77.2°F25.1°C 69.0°F20.6°C 76% 0.6 mph ENE1.0 kmh ENE 2.5 mph4.0 kmh 29.35 in993.9 mb 0.00 in0.0 mm 0.00 in0.0 mm 0.00 in0.0 mm
01:00 AM 77.2°F25.1°C 69.0°F20.6°C 76% 0.1 mph NE0.2 kmh NE 2.5 mph4.0 kmh 29.35 in993.9 mb 0.00 in0.0 mm 0.00 in0.0 mm 0.00 in0.0 mm
01:05 AM 77.2°F25.1°C 69.2°F20.7°C 76% Calm Calm -- 29.34 in993.6 mb 0.00 in0.0 mm 0.00 in0.0 mm 0.00 in0.0 mm
01:10 AM 77.2°F25.1°C 69.4°F20.8°C 77% Calm Calm -- 29.34 in993.6 mb 0.00 in0.0 mm 0.00 in0.0 mm 0.00 in0.0 mm
01:15 AM 77.2°F25.1°C 69.4°F20.8°C 77% 0.6 mph E1.0 kmh E 2.5 mph4.0 kmh 29.34 in993.6 mb 0.00 in0.0 mm 0.00 in0.0 mm 0.00 in0.0 mm
01:20 AM 77.2°F25.1°C 69.4°F20.8°C 77% 1.1 mph NE1.8 kmh NE 2.5 mph4.0 kmh 29.33 in993.2 mb 0.00 in0.0 mm 0.00 in0.0 mm 0.00 in0.0 mm
01:25 AM 77.2°F25.1°C 69.4°F20.8°C 77% 0.7 mph ENE1.1 kmh ENE 4.9 mph7.9 kmh 29.33 in993.2 mb 0.00 in0.0 mm 0.00 in0.0 mm 0.00 in0.0 mm
01:30 AM 77.2°F25.1°C 69.4°F20.8°C 77% Calm Calm -- 29.33 in993.2 mb 0.00 in0.0 mm 0.00 in0.0 mm 0.00 in0.0 mm
01:35 AM 77.2°F25.1°C 69.4°F20.8°C 77% 0.4 mph ENE0.6 kmh ENE 2.5 mph4.0 kmh 29.32 in992.9 mb 0.00 in0.0 mm 0.00 in0.0 mm 0.00 in0.0 mm
01:40 AM 77.2°F25.1°C 69.6°F20.9°C 78% 0.5 mph NE0.8 kmh NE 2.5 mph4.0 kmh 29.32 in992.9 mb 0.00 in0.0 mm 0.00 in0.0 mm 0.00 in0.0 mm
01:45 AM 77.2°F25.1°C 69.8°F21.0°C 78% 0.7 mph NE1.1 kmh NE 2.5 mph4.0 kmh 29.32 in992.9 mb 0.00 in0.0 mm 0.00 in0.0 mm 0.00 in0.0 mm
01:50 AM 77.0°F25.0°C 69.7°F20.9°C 78% 0.4 mph E0.6 kmh E 2.5 mph4.0 kmh 29.32 in992.9 mb 0.00 in0.0 mm 0.00 in0.0 mm 0.00 in0.0 mm
01:55 AM 76.9°F24.9°C 70.2°F21.2°C 80% Calm Calm -- 29.32 in992.9 mb 0.00 in0.0 mm 0.00 in0.0 mm 0.00 in0.0 mm
02:00 AM 76.8°F24.9°C 70.5°F21.4°C 81% Calm Calm -- 29.32 in992.9 mb 0.00 in0.0 mm 0.00 in0.0 mm 0.00 in0.0 mm
02:05 AM 76.8°F24.9°C 70.5°F21.4°C 81% 0.1 mph ENE0.2 kmh ENE 2.5 mph4.0 kmh 29.32 in992.9 mb 0.00 in0.0 mm 0.00 in0.0 mm 0.00 in0.0 mm
02:10 AM 76.6°F24.8°C 70.3°F21.3°C 81% Calm Calm -- 29.31 in992.6 mb 0.00 in0.0 mm 0.00 in0.0 mm 0.00 in0.0 mm
02:15 AM 76.5°F24.7°C 70.3°F21.3°C 81% 0.5 mph ENE0.8 kmh ENE 2.5 mph4.0 kmh 29.31 in992.6 mb 0.00 in0.0 mm 0.00 in0.0 mm 0.00 in0.0 mm
02:20 AM 76.5°F24.7°C 70.2°F21.2°C 81% 0.2 mph NNE0.3 kmh NNE 2.5 mph4.0 kmh 29.31 in992.6 mb 0.00 in0.0 mm 0.00 in0.0 mm 0.00 in0.0 mm
02:25 AM 76.5°F24.7°C 70.2°F21.2°C 81% 0.4 mph NE0.6 kmh NE 2.5 mph4.0 kmh 29.31 in992.6 mb 0.00 in0.0 mm 0.00 in0.0 mm 0.00 in0.0 mm
02:30 AM 76.5°F24.7°C 70.3°F21.3°C 81% 0.1 mph NE0.2 kmh NE 2.5 mph4.0 kmh 29.31 in992.6 mb 0.00 in0.0 mm 0.00 in0.0 mm 0.00 in0.0 mm
02:35 AM 76.3°F24.6°C 70.5°F21.4°C 82% Calm Calm -- 29.31 in992.6 mb 0.00 in0.0 mm 0.00 in0.0 mm 0.00 in0.0 mm
02:40 AM 76.3°F24.6°C 70.9°F21.6°C 84% 0.5 mph N0.8 kmh N 2.5 mph4.0 kmh 29.31 in992.6 mb 0.00 in0.0 mm 0.00 in0.0 mm 0.00 in0.0 mm
02:45 AM 76.2°F24.6°C 71.2°F21.8°C 85% 0.3 mph NNW0.5 kmh NNW 2.5 mph4.0 kmh 29.31 in992.6 mb 0.00 in0.0 mm 0.00 in0.0 mm 0.00 in0.0 mm
02:50 AM 76.1°F24.5°C 71.3°F21.8°C 85% Calm Calm -- 29.31 in992.6 mb 0.00 in0.0 mm 0.00 in0.0 mm 0.00 in0.0 mm
02:55 AM 75.3°F24.1°C 71.0°F21.7°C 86% 0.2 mph NNE0.3 kmh NNE 2.5 mph4.0 kmh 29.30 in992.2 mb 0.00 in0.0 mm 0.00 in0.0 mm 0.00 in0.0 mm
03:00 AM 75.2°F24.0°C 71.1°F21.7°C 87% 0.6 mph N1.0 kmh N 2.5 mph4.0 kmh 29.31 in992.6 mb 0.00 in0.0 mm 0.00 in0.0 mm 0.00 in0.0 mm
03:05 AM 75.2°F24.0°C 71.6°F22.0°C 88% 0.3 mph N0.5 kmh N 2.5 mph4.0 kmh 29.31 in992.6 mb 0.00 in0.0 mm 0.00 in0.0 mm 0.00 in0.0 mm
03:10 AM 75.2°F24.0°C 71.7°F22.1°C 89% Calm Calm -- 29.30 in992.2 mb 0.00 in0.0 mm 0.00 in0.0 mm 0.00 in0.0 mm
03:15 AM 74.7°F23.7°C 71.3°F21.8°C 89% Calm Calm -- 29.31 in992.6 mb 0.00 in0.0 mm 0.00 in0.0 mm 0.00 in0.0 mm
03:20 AM 74.7°F23.7°C 71.5°F21.9°C 90% Calm Calm -- 29.31 in992.6 mb 0.00 in0.0 mm 0.00 in0.0 mm 0.00 in0.0 mm
03:25 AM 74.7°F23.7°C 71.6°F22.0°C 90% 0.1 mph N0.2 kmh N 2.5 mph4.0 kmh 29.31 in992.6 mb 0.00 in0.0 mm 0.00 in0.0 mm 0.00 in0.0 mm
03:30 AM 74.7°F23.7°C 71.6°F22.0°C 90% Calm Calm -- 29.30 in992.2 mb 0.00 in0.0 mm 0.00 in0.0 mm 0.00 in0.0 mm
03:35 AM 74.5°F23.6°C 71.7°F22.1°C 91% Calm Calm -- 29.31 in992.6 mb 0.00 in0.0 mm 0.00 in0.0 mm 0.00 in0.0 mm
03:40 AM 74.4°F23.6°C 71.8°F22.1°C 92% Calm Calm -- 29.31 in992.6 mb 0.00 in0.0 mm 0.00 in0.0 mm 0.00 in0.0 mm
03:45 AM 74.3°F23.5°C 71.8°F22.1°C 92% 0.1 mph N0.2 kmh N 2.5 mph4.0 kmh 29.30 in992.2 mb 0.00 in0.0 mm 0.00 in0.0 mm 0.00 in0.0 mm
03:50 AM 74.3°F23.5°C 71.8°F22.1°C 92% Calm Calm -- 29.30 in992.2 mb 0.00 in0.0 mm 0.00 in0.0 mm 0.00 in0.0 mm
03:55 AM 74.1°F23.4°C 71.6°F22.0°C 92% 0.2 mph N0.3 kmh N 2.5 mph4.0 kmh 29.31 in992.6 mb 0.00 in0.0 mm 0.00 in0.0 mm 0.00 in0.0 mm
04:00 AM 74.1°F23.4°C 71.6°F22.0°C 92% Calm Calm -- 29.30 in992.2 mb 0.00 in0.0 mm 0.00 in0.0 mm 0.00 in0.0 mm
04:05 AM 74.1°F23.4°C 71.6°F22.0°C 92% 0.2 mph NE0.3 kmh NE 2.5 mph4.0 kmh 29.30 in992.2 mb 0.00 in0.0 mm 0.00 in0.0 mm 0.00 in0.0 mm
04:10 AM 74.1°F23.4°C 71.6°F22.0°C 92% Calm Calm 2.5 mph4.0 kmh 29.30 in992.2 mb 0.00 in0.0 mm 0.00 in0.0 mm 0.00 in0.0 mm
04:15 AM 73.9°F23.3°C 71.4°F21.9°C 92% 0.4 mph ENE0.6 kmh ENE 2.5 mph4.0 kmh 29.30 in992.2 mb 0.00 in0.0 mm 0.00 in0.0 mm 0.00 in0.0 mm
04:20 AM 73.9°F23.3°C 71.4°F21.9°C 92% Calm Calm 2.5 mph4.0 kmh 29.30 in992.2 mb 0.00 in0.0 mm 0.00 in0.0 mm 0.00 in0.0 mm
04:25 AM 73.8°F23.2°C 71.3°F21.8°C 92% 1.0 mph NE1.6 kmh NE 2.5 mph4.0 kmh 29.30 in992.2 mb 0.00 in0.0 mm 0.00 in0.0 mm 0.00 in0.0 mm
04:30 AM 73.8°F23.2°C 71.3°F21.8°C 92% 0.9 mph NE1.4 kmh NE 4.9 mph7.9 kmh 29.30 in992.2 mb 0.00 in0.0 mm 0.00 in0.0 mm 0.00 in0.0 mm
04:35 AM 73.9°F23.3°C 71.3°F21.8°C 92% 0.6 mph NE1.0 kmh NE 2.5 mph4.0 kmh 29.30 in992.2 mb 0.00 in0.0 mm 0.00 in0.0 mm 0.00 in0.0 mm
04:40 AM 73.9°F23.3°C 71.0°F21.7°C 91% 0.6 mph ENE1.0 kmh ENE 2.5 mph4.0 kmh 29.30 in992.2 mb 0.00 in0.0 mm 0.00 in0.0 mm 0.00 in0.0 mm
04:45 AM 73.9°F23.3°C 70.8°F21.6°C 90% 0.2 mph NE0.3 kmh NE 2.5 mph4.0 kmh 29.29 in991.9 mb 0.00 in0.0 mm 0.00 in0.0 mm 0.00 in0.0 mm
04:50 AM 73.9°F23.3°C 70.8°F21.6°C 90% 0.5 mph ENE0.8 kmh ENE 2.5 mph4.0 kmh 29.30 in992.2 mb 0.00 in0.0 mm 0.00 in0.0 mm 0.00 in0.0 mm
04:55 AM 73.9°F23.3°C 70.8°F21.6°C 90% 0.5 mph ENE0.8 kmh ENE 2.5 mph4.0 kmh 29.29 in991.9 mb 0.00 in0.0 mm 0.00 in0.0 mm 0.00 in0.0 mm
05:00 AM 73.9°F23.3°C 70.8°F21.6°C 90% 0.5 mph ENE0.8 kmh ENE 2.5 mph4.0 kmh 29.29 in991.9 mb 0.00 in0.0 mm 0.00 in0.0 mm 0.00 in0.0 mm
05:05 AM 73.9°F23.3°C 70.8°F21.6°C 90% 0.4 mph NE0.6 kmh NE 2.5 mph4.0 kmh 29.30 in992.2 mb 0.00 in0.0 mm 0.00 in0.0 mm 0.00 in0.0 mm
05:10 AM 73.8°F23.2°C 70.7°F21.5°C 90% Calm Calm -- 29.30 in992.2 mb 0.00 in0.0 mm 0.00 in0.0 mm 0.00 in0.0 mm
05:15 AM 73.6°F23.1°C 70.8°F21.6°C 91% 0.6 mph NNE1.0 kmh NNE 2.5 mph4.0 kmh 29.30 in992.2 mb 0.00 in0.0 mm 0.00 in0.0 mm 0.00 in0.0 mm
05:20 AM 73.4°F23.0°C 70.6°F21.4°C 91% 1.2 mph NE1.9 kmh NE 4.9 mph7.9 kmh 29.30 in992.2 mb 0.00 in0.0 mm 0.00 in0.0 mm 0.00 in0.0 mm
05:25 AM 73.4°F23.0°C 70.6°F21.4°C 91% 0.3 mph NE0.5 kmh NE 2.5 mph4.0 kmh 29.29 in991.9 mb 0.00 in0.0 mm 0.00 in0.0 mm 0.00 in0.0 mm
05:30 AM 73.4°F23.0°C 70.6°F21.4°C 91% 0.7 mph NE1.1 kmh NE 4.9 mph7.9 kmh 29.29 in991.9 mb 0.00 in0.0 mm 0.00 in0.0 mm 0.00 in0.0 mm
05:35 AM 73.4°F23.0°C 70.6°F21.4°C 91% Calm Calm 2.5 mph4.0 kmh 29.29 in991.9 mb 0.00 in0.0 mm 0.00 in0.0 mm 0.00 in0.0 mm
05:40 AM 73.4°F23.0°C 70.6°F21.4°C 91% 1.0 mph NNE1.6 kmh NNE 4.9 mph7.9 kmh 29.29 in991.9 mb 0.00 in0.0 mm 0.00 in0.0 mm 0.00 in0.0 mm
05:45 AM 73.3°F22.9°C 70.1°F21.2°C 90% Calm Calm -- 29.29 in991.9 mb 0.00 in0.0 mm 0.00 in0.0 mm 0.00 in0.0 mm
05:50 AM 73.2°F22.9°C 69.8°F21.0°C 89% 0.4 mph NNE0.6 kmh NNE 2.5 mph4.0 kmh 29.29 in991.9 mb 0.00 in0.0 mm 0.00 in0.0 mm 0.00 in0.0 mm
05:55 AM 73.0°F22.8°C 69.6°F20.9°C 89% Calm Calm -- 29.29 in991.9 mb 0.00 in0.0 mm 0.00 in0.0 mm 0.00 in0.0 mm
06:00 AM 72.9°F22.7°C 69.5°F20.8°C 89% 0.5 mph NE0.8 kmh NE 2.5 mph4.0 kmh 29.29 in991.9 mb 0.00 in0.0 mm 0.00 in0.0 mm 0.00 in0.0 mm
06:05 AM 72.9°F22.7°C 69.5°F20.8°C 89% 0.1 mph N0.2 kmh N 2.5 mph4.0 kmh 29.29 in991.9 mb 0.00 in0.0 mm 0.00 in0.0 mm 0.00 in0.0 mm
06:10 AM 72.9°F22.7°C 69.5°F20.8°C 89% 0.4 mph NE0.6 kmh NE 2.5 mph4.0 kmh 29.29 in991.9 mb 0.00 in0.0 mm 0.00 in0.0 mm 0.00 in0.0 mm
06:15 AM 72.8°F22.7°C 69.7°F20.9°C 90% Calm Calm -- 29.30 in992.2 mb 0.00 in0.0 mm 0.00 in0.0 mm 0.00 in0.0 mm
06:20 AM 72.7°F22.6°C 69.6°F20.9°C 90% 0.2 mph NE0.3 kmh NE 2.5 mph4.0 kmh 29.30 in992.2 mb 0.00 in0.0 mm 0.00 in0.0 mm 0.00 in0.0 mm
06:25 AM 72.6°F22.6°C 69.5°F20.8°C 90% Calm Calm -- 29.29 in991.9 mb 0.00 in0.0 mm 0.00 in0.0 mm 0.00 in0.0 mm
06:30 AM 72.5°F22.5°C 69.4°F20.8°C 90% Calm Calm -- 29.29 in991.9 mb 0.00 in0.0 mm 0.00 in0.0 mm 0.00 in0.0 mm
06:35 AM 72.3°F22.4°C 69.4°F20.8°C 90% Calm Calm -- 29.29 in991.9 mb 0.00 in0.0 mm 0.00 in0.0 mm 0.00 in0.0 mm
06:40 AM 72.1°F22.3°C 69.3°F20.7°C 91% Calm Calm -- 29.29 in991.9 mb 0.00 in0.0 mm 0.00 in0.0 mm 0.00 in0.0 mm
06:45 AM 72.1°F22.3°C 69.3°F20.7°C 91% 0.2 mph N0.3 kmh N 2.5 mph4.0 kmh 29.30 in992.2 mb 0.00 in0.0 mm 0.00 in0.0 mm 0.00 in0.0 mm
06:50 AM 72.1°F22.3°C 69.3°F20.7°C 91% 0.3 mph NNW0.5 kmh NNW 2.5 mph4.0 kmh 29.30 in992.2 mb 0.00 in0.0 mm 0.00 in0.0 mm 0.00 in0.0 mm
06:55 AM 72.4°F22.4°C 69.8°F21.0°C 92% 0.1 mph N0.2 kmh N 2.5 mph4.0 kmh 29.29 in991.9 mb 0.00 in0.0 mm 0.00 in0.0 mm 0.00 in0.0 mm
07:00 AM 72.9°F22.7°C 70.5°F21.4°C 92% 0.4 mph NE0.6 kmh NE 2.5 mph4.0 kmh 29.30 in992.2 mb 0.00 in0.0 mm 0.00 in0.0 mm 0.00 in0.0 mm
07:05 AM 73.0°F22.8°C 70.0°F21.1°C 90% 0.3 mph N0.5 kmh N 2.5 mph4.0 kmh 29.30 in992.2 mb 0.00 in0.0 mm 0.00 in0.0 mm 0.00 in0.0 mm
07:10 AM 73.2°F22.9°C 69.6°F20.9°C 88% 0.2 mph NNW0.3 kmh NNW 2.5 mph4.0 kmh 29.30 in992.2 mb 0.00 in0.0 mm 0.00 in0.0 mm 0.00 in0.0 mm
07:15 AM 73.9°F23.3°C 69.5°F20.8°C 86% 0.4 mph NW0.6 kmh NW 2.5 mph4.0 kmh 29.30 in992.2 mb 0.00 in0.0 mm 0.00 in0.0 mm 0.00 in0.0 mm
07:20 AM 74.7°F23.7°C 69.6°F20.9°C 84% 0.9 mph NNE1.4 kmh NNE 2.5 mph4.0 kmh 29.30 in992.2 mb 0.00 in0.0 mm 0.00 in0.0 mm 0.00 in0.0 mm
07:25 AM 74.7°F23.7°C 69.2°F20.7°C 83% 1.2 mph NE1.9 kmh NE 4.9 mph7.9 kmh 29.30 in992.2 mb 0.00 in0.0 mm 0.00 in0.0 mm 0.00 in0.0 mm
07:30 AM 74.7°F23.7°C 69.0°F20.6°C 82% 0.4 mph NNE0.6 kmh NNE 2.5 mph4.0 kmh 29.31 in992.6 mb 0.00 in0.0 mm 0.00 in0.0 mm 0.00 in0.0 mm
07:35 AM 74.9°F23.8°C 68.6°F20.3°C 81% 0.8 mph N1.3 kmh N 2.5 mph4.0 kmh 29.31 in992.6 mb 0.00 in0.0 mm 0.00 in0.0 mm 0.00 in0.0 mm
07:40 AM 75.2°F24.0°C 68.5°F20.3°C 80% 1.0 mph NNE1.6 kmh NNE 2.5 mph4.0 kmh 29.30 in992.2 mb 0.00 in0.0 mm 0.00 in0.0 mm 0.00 in0.0 mm
07:45 AM 75.3°F24.1°C 68.1°F20.1°C 78% 0.6 mph NE1.0 kmh NE 4.9 mph7.9 kmh 29.31 in992.6 mb 0.00 in0.0 mm 0.00 in0.0 mm 0.00 in0.0 mm
07:50 AM 75.5°F24.2°C 68.2°F20.1°C 78% 1.1 mph N1.8 kmh N 2.5 mph4.0 kmh 29.31 in992.6 mb 0.00 in0.0 mm 0.00 in0.0 mm 0.00 in0.0 mm
07:55 AM 76.1°F24.5°C 68.1°F20.1°C 76% 0.6 mph N1.0 kmh N 2.5 mph4.0 kmh 29.31 in992.6 mb 0.00 in0.0 mm 0.00 in0.0 mm 0.00 in0.0 mm
08:00 AM 77.0°F25.0°C 68.6°F20.3°C 75% 1.2 mph N1.9 kmh N 2.5 mph4.0 kmh 29.31 in992.6 mb 0.00 in0.0 mm 0.00 in0.0 mm 0.00 in0.0 mm
08:05 AM 77.0°F25.0°C 68.5°F20.3°C 75% 1.0 mph N1.6 kmh N 4.9 mph7.9 kmh 29.31 in992.6 mb 0.00 in0.0 mm 0.00 in0.0 mm 0.00 in0.0 mm
08:10 AM 77.0°F25.0°C 68.1°F20.1°C 74% 0.3 mph N0.5 kmh N 2.5 mph4.0 kmh 29.31 in992.6 mb 0.00 in0.0 mm 0.00 in0.0 mm 0.00 in0.0 mm
08:15 AM 77.3°F25.2°C 68.2°F20.1°C 74% 0.6 mph NNE1.0 kmh NNE 4.9 mph7.9 kmh 29.32 in992.9 mb 0.00 in0.0 mm 0.00 in0.0 mm 0.00 in0.0 mm
08:20 AM 77.7°F25.4°C 68.7°F20.4°C 74% 2.0 mph N3.2 kmh N 4.9 mph7.9 kmh 29.32 in992.9 mb 0.00 in0.0 mm 0.00 in0.0 mm 0.00 in0.0 mm
08:25 AM 77.7°F25.4°C 68.2°F20.1°C 73% 2.4 mph NNE3.9 kmh NNE 4.9 mph7.9 kmh 29.32 in992.9 mb 0.00 in0.0 mm 0.00 in0.0 mm 0.00 in0.0 mm
08:30 AM 77.7°F25.4°C 67.7°F19.8°C 71% 1.1 mph N1.8 kmh N 4.9 mph7.9 kmh 29.32 in992.9 mb 0.00 in0.0 mm 0.00 in0.0 mm 0.00 in0.0 mm
08:35 AM 78.1°F25.6°C 67.6°F19.8°C 70% 2.7 mph NE4.3 kmh NE 7.4 mph11.9 kmh 29.31 in992.6 mb 0.00 in0.0 mm 0.00 in0.0 mm 0.00 in0.0 mm
08:40 AM 79.0°F26.1°C 68.7°F20.4°C 71% 3.3 mph NNE5.3 kmh NNE 7.4 mph11.9 kmh 29.32 in992.9 mb 0.00 in0.0 mm 0.00 in0.0 mm 0.00 in0.0 mm
08:45 AM 79.0°F26.1°C 68.8°F20.4°C 71% 3.3 mph ENE5.3 kmh ENE 4.9 mph7.9 kmh 29.32 in992.9 mb 0.00 in0.0 mm 0.00 in0.0 mm 0.00 in0.0 mm
08:50 AM 79.0°F26.1°C 68.8°F20.4°C 71% 3.1 mph NE5.0 kmh NE 7.4 mph11.9 kmh 29.32 in992.9 mb 0.00 in0.0 mm 0.00 in0.0 mm 0.00 in0.0 mm
08:55 AM 79.0°F26.1°C 68.7°F20.4°C 71% 1.7 mph NE2.7 kmh NE 4.9 mph7.9 kmh 29.33 in993.2 mb 0.00 in0.0 mm 0.00 in0.0 mm 0.00 in0.0 mm
09:00 AM 79.7°F26.5°C 69.0°F20.6°C 70% 3.7 mph NE6.0 kmh NE 7.4 mph11.9 kmh 29.32 in992.9 mb 0.00 in0.0 mm 0.00 in0.0 mm 0.00 in0.0 mm
09:05 AM 79.6°F26.4°C 69.0°F20.6°C 70% 4.1 mph N6.6 kmh N 9.8 mph15.8 kmh 29.33 in993.2 mb 0.00 in0.0 mm 0.00 in0.0 mm 0.00 in0.0 mm
09:10 AM 79.5°F26.4°C 68.8°F20.4°C 70% 2.3 mph N3.7 kmh N 4.9 mph7.9 kmh 29.33 in993.2 mb 0.00 in0.0 mm 0.00 in0.0 mm 0.00 in0.0 mm
09:15 AM 79.5°F26.4°C 68.6°F20.3°C 70% 2.0 mph NNE3.2 kmh NNE 7.4 mph11.9 kmh 29.33 in993.2 mb 0.00 in0.0 mm 0.00 in0.0 mm 0.00 in0.0 mm
09:20 AM 80.4°F26.9°C 68.9°F20.5°C 68% 4.3 mph N6.9 kmh N 9.8 mph15.8 kmh 29.33 in993.2 mb 0.00 in0.0 mm 0.00 in0.0 mm 0.00 in0.0 mm
09:25 AM 80.4°F26.9°C 69.1°F20.6°C 69% 3.0 mph N4.8 kmh N 4.9 mph7.9 kmh 29.32 in992.9 mb 0.00 in0.0 mm 0.00 in0.0 mm 0.00 in0.0 mm
09:30 AM 80.5°F26.9°C 68.9°F20.5°C 68% 4.4 mph NW7.1 kmh NW 9.8 mph15.8 kmh 29.33 in993.2 mb 0.00 in0.0 mm 0.00 in0.0 mm 0.00 in0.0 mm
09:35 AM 80.6°F27.0°C 69.4°F20.8°C 69% 2.8 mph NNW4.5 kmh NNW 7.4 mph11.9 kmh 29.33 in993.2 mb 0.00 in0.0 mm 0.00 in0.0 mm 0.00 in0.0 mm
09:40 AM 80.3°F26.8°C 68.9°F20.5°C 68% 3.9 mph NW6.3 kmh NW 7.4 mph11.9 kmh 29.32 in992.9 mb 0.00 in0.0 mm 0.00 in0.0 mm 0.00 in0.0 mm
09:45 AM 80.4°F26.9°C 68.8°F20.4°C 68% 2.4 mph N3.9 kmh N 7.4 mph11.9 kmh 29.32 in992.9 mb 0.00 in0.0 mm 0.00 in0.0 mm 0.00 in0.0 mm
09:50 AM 80.5°F26.9°C 69.0°F20.6°C 68% 3.0 mph NNW4.8 kmh NNW 7.4 mph11.9 kmh 29.31 in992.6 mb 0.00 in0.0 mm 0.00 in0.0 mm 0.00 in0.0 mm
09:55 AM 80.7°F27.1°C 68.5°F20.3°C 67% 4.0 mph N6.4 kmh N 7.4 mph11.9 kmh 29.32 in992.9 mb 0.00 in0.0 mm 0.00 in0.0 mm 0.00 in0.0 mm
10:00 AM 81.6°F27.6°C 69.7°F20.9°C 67% 5.0 mph NNW8.0 kmh NNW 9.8 mph15.8 kmh 29.32 in992.9 mb 0.00 in0.0 mm 0.00 in0.0 mm 0.00 in0.0 mm
10:05 AM 81.6°F27.6°C 69.9°F21.1°C 68% 3.8 mph NNW6.1 kmh NNW 7.4 mph11.9 kmh 29.31 in992.6 mb 0.00 in0.0 mm 0.00 in0.0 mm 0.00 in0.0 mm
10:10 AM 81.6°F27.6°C 69.6°F20.9°C 67% 4.6 mph NNW7.4 kmh NNW 9.8 mph15.8 kmh 29.32 in992.9 mb 0.00 in0.0 mm 0.00 in0.0 mm 0.00 in0.0 mm
10:15 AM 81.7°F27.6°C 69.2°F20.7°C 66% 4.7 mph N7.6 kmh N 7.4 mph11.9 kmh 29.32 in992.9 mb 0.00 in0.0 mm 0.00 in0.0 mm 0.00 in0.0 mm
10:20 AM 82.6°F28.1°C 69.5°F20.8°C 65% 2.1 mph N3.4 kmh N 7.4 mph11.9 kmh 29.31 in992.6 mb 0.00 in0.0 mm 0.00 in0.0 mm 0.00 in0.0 mm
10:25 AM 82.6°F28.1°C 69.5°F20.8°C 65% 4.1 mph N6.6 kmh N 7.4 mph11.9 kmh 29.31 in992.6 mb 0.00 in0.0 mm 0.00 in0.0 mm 0.00 in0.0 mm
10:30 AM 82.6°F28.1°C 69.3°F20.7°C 64% 4.4 mph NE7.1 kmh NE 7.4 mph11.9 kmh 29.31 in992.6 mb 0.00 in0.0 mm 0.00 in0.0 mm 0.00 in0.0 mm
10:35 AM 82.7°F28.2°C 69.0°F20.6°C 63% 6.1 mph N9.8 kmh N 9.8 mph15.8 kmh 29.31 in992.6 mb 0.00 in0.0 mm 0.00 in0.0 mm 0.00 in0.0 mm
10:40 AM 83.3°F28.5°C 69.1°F20.6°C 63% 5.7 mph N9.2 kmh N 9.8 mph15.8 kmh 29.31 in992.6 mb 0.00 in0.0 mm 0.00 in0.0 mm 0.00 in0.0 mm
10:45 AM 83.1°F28.4°C 69.1°F20.6°C 63% 3.9 mph NE6.3 kmh NE 9.8 mph15.8 kmh 29.31 in992.6 mb 0.00 in0.0 mm 0.00 in0.0 mm 0.00 in0.0 mm
10:50 AM 83.1°F28.4°C 68.5°F20.3°C 62% 4.7 mph NE7.6 kmh NE 9.8 mph15.8 kmh 29.31 in992.6 mb 0.00 in0.0 mm 0.00 in0.0 mm 0.00 in0.0 mm
10:55 AM 83.3°F28.5°C 68.0°F20.0°C 60% 3.3 mph E5.3 kmh E 9.8 mph15.8 kmh 29.31 in992.6 mb 0.00 in0.0 mm 0.00 in0.0 mm 0.00 in0.0 mm
11:00 AM 84.7°F29.3°C 68.7°F20.4°C 59% 5.4 mph NNE8.7 kmh NNE 7.4 mph11.9 kmh 29.31 in992.6 mb 0.00 in0.0 mm 0.00 in0.0 mm 0.00 in0.0 mm
11:05 AM 84.6°F29.2°C 68.6°F20.3°C 59% 2.1 mph NE3.4 kmh NE 7.4 mph11.9 kmh 29.31 in992.6 mb 0.00 in0.0 mm 0.00 in0.0 mm 0.00 in0.0 mm
11:10 AM 84.7°F29.3°C 68.0°F20.0°C 58% 3.9 mph N6.3 kmh N 9.8 mph15.8 kmh 29.30 in992.2 mb 0.00 in0.0 mm 0.00 in0.0 mm 0.00 in0.0 mm
11:15 AM 84.7°F29.3°C 67.9°F19.9°C 57% 5.3 mph NE8.5 kmh NE 9.8 mph15.8 kmh 29.31 in992.6 mb 0.00 in0.0 mm 0.00 in0.0 mm 0.00 in0.0 mm
11:20 AM 84.3°F29.1°C 66.9°F19.4°C 56% 4.8 mph NNE7.7 kmh NNE 9.8 mph15.8 kmh 29.30 in992.2 mb 0.00 in0.0 mm 0.00 in0.0 mm 0.00 in0.0 mm
11:25 AM 84.2°F29.0°C 67.2°F19.6°C 57% 3.3 mph NE5.3 kmh NE 9.8 mph15.8 kmh 29.30 in992.2 mb 0.00 in0.0 mm 0.00 in0.0 mm 0.00 in0.0 mm
11:30 AM 84.2°F29.0°C 66.5°F19.2°C 56% 2.4 mph N3.9 kmh N 4.9 mph7.9 kmh 29.29 in991.9 mb 0.00 in0.0 mm 0.00 in0.0 mm 0.00 in0.0 mm
11:35 AM 84.3°F29.1°C 66.0°F18.9°C 54% 3.5 mph E5.6 kmh E 4.9 mph7.9 kmh 29.29 in991.9 mb 0.00 in0.0 mm 0.00 in0.0 mm 0.00 in0.0 mm
11:40 AM 85.8°F29.9°C 66.6°F19.2°C 53% 4.2 mph NNE6.8 kmh NNE 7.4 mph11.9 kmh 29.30 in992.2 mb 0.00 in0.0 mm 0.00 in0.0 mm 0.00 in0.0 mm
11:45 AM 86.4°F30.2°C 67.9°F19.9°C 54% 6.0 mph N9.7 kmh N 12.3 mph19.8 kmh 29.29 in991.9 mb 0.00 in0.0 mm 0.00 in0.0 mm 0.00 in0.0 mm
11:50 AM 86.1°F30.1°C 68.0°F20.0°C 55% 3.8 mph NNE6.1 kmh NNE 7.4 mph11.9 kmh 29.29 in991.9 mb 0.00 in0.0 mm 0.00 in0.0 mm 0.00 in0.0 mm
11:55 AM 85.9°F29.9°C 67.3°F19.6°C 54% 4.6 mph NNE7.4 kmh NNE 9.8 mph15.8 kmh 29.29 in991.9 mb 0.00 in0.0 mm 0.00 in0.0 mm 0.00 in0.0 mm
12:00 PM 85.6°F29.8°C 67.0°F19.4°C 54% 2.6 mph NNE4.2 kmh NNE 4.9 mph7.9 kmh 29.28 in991.5 mb 0.00 in0.0 mm 0.00 in0.0 mm 0.00 in0.0 mm
12:05 PM 85.6°F29.8°C 66.4°F19.1°C 53% 3.9 mph NNE6.3 kmh NNE 7.4 mph11.9 kmh 29.28 in991.5 mb 0.00 in0.0 mm 0.00 in0.0 mm 0.00 in0.0 mm
12:10 PM 85.9°F29.9°C 66.2°F19.0°C 52% 2.0 mph N3.2 kmh N 4.9 mph7.9 kmh 29.28 in991.5 mb 0.00 in0.0 mm 0.00 in0.0 mm 0.00 in0.0 mm
12:15 PM 86.1°F30.1°C 65.9°F18.8°C 51% 4.7 mph N7.6 kmh N 7.4 mph11.9 kmh 29.28 in991.5 mb 0.00 in0.0 mm 0.00 in0.0 mm 0.00 in0.0 mm
12:20 PM 86.4°F30.2°C 65.8°F18.8°C 51% 3.4 mph NNE5.5 kmh NNE 7.4 mph11.9 kmh 29.28 in991.5 mb 0.00 in0.0 mm 0.00 in0.0 mm 0.00 in0.0 mm
12:25 PM 86.6°F30.3°C 65.6°F18.7°C 50% 2.7 mph NE4.3 kmh NE 4.9 mph7.9 kmh 29.27 in991.2 mb 0.00 in0.0 mm 0.00 in0.0 mm 0.00 in0.0 mm
12:30 PM 86.7°F30.4°C 65.1°F18.4°C 49% 4.2 mph N6.8 kmh N 7.4 mph11.9 kmh 29.28 in991.5 mb 0.00 in0.0 mm 0.00 in0.0 mm 0.00 in0.0 mm
12:35 PM 86.9°F30.5°C 64.1°F17.8°C 47% 4.8 mph NNW7.7 kmh NNW 9.8 mph15.8 kmh 29.27 in991.2 mb 0.00 in0.0 mm 0.00 in0.0 mm 0.00 in0.0 mm
12:40 PM 87.1°F30.6°C 64.0°F17.8°C 46% 4.3 mph N6.9 kmh N 9.8 mph15.8 kmh 29.28 in991.5 mb 0.00 in0.0 mm 0.00 in0.0 mm 0.00 in0.0 mm
12:45 PM 87.1°F30.6°C 65.1°F18.4°C 48% 5.0 mph N8.0 kmh N 9.8 mph15.8 kmh 29.27 in991.2 mb 0.00 in0.0 mm 0.00 in0.0 mm 0.00 in0.0 mm
12:50 PM 87.1°F30.6°C 65.6°F18.7°C 49% 3.3 mph NNE5.3 kmh NNE 7.4 mph11.9 kmh 29.27 in991.2 mb 0.00 in0.0 mm 0.00 in0.0 mm 0.00 in0.0 mm
12:55 PM 87.2°F30.7°C 66.3°F19.1°C 50% 5.0 mph NNE8.0 kmh NNE 9.8 mph15.8 kmh 29.27 in991.2 mb 0.00 in0.0 mm 0.00 in0.0 mm 0.00 in0.0 mm
01:00 PM 87.5°F30.8°C 65.4°F18.6°C 48% 5.5 mph NNE8.9 kmh NNE 9.8 mph15.8 kmh 29.27 in991.2 mb 0.00 in0.0 mm 0.00 in0.0 mm 0.00 in0.0 mm
01:05 PM 87.8°F31.0°C 63.6°F17.6°C 45% 4.0 mph N6.4 kmh N 7.4 mph11.9 kmh 29.27 in991.2 mb 0.00 in0.0 mm 0.00 in0.0 mm 0.00 in0.0 mm
01:10 PM 87.6°F30.9°C 64.7°F18.2°C 47% 2.9 mph N4.7 kmh N 7.4 mph11.9 kmh 29.27 in991.2 mb 0.00 in0.0 mm 0.00 in0.0 mm 0.00 in0.0 mm
01:15 PM 87.5°F30.8°C 64.6°F18.1°C 47% 6.4 mph NNE10.3 kmh NNE 12.3 mph19.8 kmh 29.26 in990.9 mb 0.00 in0.0 mm 0.00 in0.0 mm 0.00 in0.0 mm
01:20 PM 87.2°F30.7°C 65.0°F18.3°C 48% 4.8 mph NNE7.7 kmh NNE 9.8 mph15.8 kmh 29.26 in990.9 mb 0.00 in0.0 mm 0.00 in0.0 mm 0.00 in0.0 mm
01:25 PM 87.0°F30.6°C 64.1°F17.8°C 47% 4.0 mph N6.4 kmh N 12.3 mph19.8 kmh 29.26 in990.9 mb 0.00 in0.0 mm 0.00 in0.0 mm 0.00 in0.0 mm
01:30 PM 87.1°F30.6°C 61.1°F16.2°C 42% 4.8 mph NE7.7 kmh NE 9.8 mph15.8 kmh 29.26 in990.9 mb 0.00 in0.0 mm 0.00 in0.0 mm 0.00 in0.0 mm
01:35 PM 87.3°F30.7°C 60.3°F15.7°C 40% 3.8 mph NE6.1 kmh NE 7.4 mph11.9 kmh 29.26 in990.9 mb 0.00 in0.0 mm 0.00 in0.0 mm 0.00 in0.0 mm
01:40 PM 87.5°F30.8°C 60.4°F15.8°C 40% 2.5 mph N4.0 kmh N 4.9 mph7.9 kmh 29.26 in990.9 mb 0.00 in0.0 mm 0.00 in0.0 mm 0.00 in0.0 mm
01:45 PM 88.2°F31.2°C 62.5°F16.9°C 42% 5.7 mph N9.2 kmh N 9.8 mph15.8 kmh 29.26 in990.9 mb 0.00 in0.0 mm 0.00 in0.0 mm 0.00 in0.0 mm
01:50 PM 88.2°F31.2°C 62.1°F16.7°C 42% 5.5 mph NE8.9 kmh NE 12.3 mph19.8 kmh 29.25 in990.5 mb 0.00 in0.0 mm 0.00 in0.0 mm 0.00 in0.0 mm
01:55 PM 88.3°F31.3°C 61.1°F16.2°C 40% 3.8 mph N6.1 kmh N 7.4 mph11.9 kmh 29.25 in990.5 mb 0.00 in0.0 mm 0.00 in0.0 mm 0.00 in0.0 mm
02:00 PM 89.5°F31.9°C 61.5°F16.4°C 39% 2.3 mph NE3.7 kmh NE 9.8 mph15.8 kmh 29.25 in990.5 mb 0.00 in0.0 mm 0.00 in0.0 mm 0.00 in0.0 mm
02:05 PM 90.8°F32.7°C 62.9°F17.2°C 40% 5.4 mph N8.7 kmh N 9.8 mph15.8 kmh 29.24 in990.2 mb 0.00 in0.0 mm 0.00 in0.0 mm 0.00 in0.0 mm
02:10 PM 90.3°F32.4°C 63.5°F17.5°C 41% 4.4 mph NE7.1 kmh NE 7.4 mph11.9 kmh 29.24 in990.2 mb 0.00 in0.0 mm 0.00 in0.0 mm 0.00 in0.0 mm
02:15 PM 89.8°F32.1°C 63.7°F17.6°C 42% 4.5 mph NNE7.2 kmh NNE 7.4 mph11.9 kmh 29.25 in990.5 mb 0.00 in0.0 mm 0.00 in0.0 mm 0.00 in0.0 mm
02:20 PM 89.1°F31.7°C 61.6°F16.4°C 40% 3.1 mph NE5.0 kmh NE 7.4 mph11.9 kmh 29.24 in990.2 mb 0.00 in0.0 mm 0.00 in0.0 mm 0.00 in0.0 mm
02:25 PM 88.2°F31.2°C 59.7°F15.4°C 38% 5.5 mph NE8.9 kmh NE 15.0 mph24.1 kmh 29.24 in990.2 mb 0.00 in0.0 mm 0.00 in0.0 mm 0.00 in0.0 mm
02:30 PM 88.0°F31.1°C 60.2°F15.7°C 40% 5.0 mph N8.0 kmh N 15.0 mph24.1 kmh 29.24 in990.2 mb 0.00 in0.0 mm 0.00 in0.0 mm 0.00 in0.0 mm
02:35 PM 87.7°F30.9°C 61.9°F16.6°C 42% 6.8 mph ENE10.9 kmh ENE 15.0 mph24.1 kmh 29.24 in990.2 mb 0.00 in0.0 mm 0.00 in0.0 mm 0.00 in0.0 mm
02:40 PM 87.3°F30.7°C 60.8°F16.0°C 41% 4.2 mph NE6.8 kmh NE 7.4 mph11.9 kmh 29.25 in990.5 mb 0.00 in0.0 mm 0.00 in0.0 mm 0.00 in0.0 mm
02:45 PM 86.5°F30.3°C 60.4°F15.8°C 42% 3.8 mph N6.1 kmh N 7.4 mph11.9 kmh 29.24 in990.2 mb 0.00 in0.0 mm 0.00 in0.0 mm 0.00 in0.0 mm
02:50 PM 86.4°F30.2°C 61.2°F16.2°C 43% 5.6 mph NE9.0 kmh NE 9.8 mph15.8 kmh 29.24 in990.2 mb 0.00 in0.0 mm 0.00 in0.0 mm 0.00 in0.0 mm
02:55 PM 86.4°F30.2°C 61.3°F16.3°C 43% 6.1 mph NE9.8 kmh NE 12.3 mph19.8 kmh 29.24 in990.2 mb 0.00 in0.0 mm 0.00 in0.0 mm 0.00 in0.0 mm
03:00 PM 86.4°F30.2°C 62.1°F16.7°C 44% 6.2 mph NNE10.0 kmh NNE 12.3 mph19.8 kmh 29.24 in990.2 mb 0.00 in0.0 mm 0.00 in0.0 mm 0.00 in0.0 mm
03:05 PM 86.2°F30.1°C 61.9°F16.6°C 44% 4.8 mph NE7.7 kmh NE 12.3 mph19.8 kmh 29.23 in989.8 mb 0.00 in0.0 mm 0.00 in0.0 mm 0.00 in0.0 mm
03:10 PM 86.3°F30.2°C 62.3°F16.8°C 45% 3.3 mph NNE5.3 kmh NNE 9.8 mph15.8 kmh 29.23 in989.8 mb 0.00 in0.0 mm 0.00 in0.0 mm 0.00 in0.0 mm
03:15 PM 86.5°F30.3°C 60.4°F15.8°C 42% 5.7 mph NNE9.2 kmh NNE 12.3 mph19.8 kmh 29.23 in989.8 mb 0.00 in0.0 mm 0.00 in0.0 mm 0.00 in0.0 mm
03:20 PM 87.1°F30.6°C 59.0°F15.0°C 39% 3.6 mph NE5.8 kmh NE 9.8 mph15.8 kmh 29.23 in989.8 mb 0.00 in0.0 mm 0.00 in0.0 mm 0.00 in0.0 mm
03:25 PM 88.7°F31.5°C 59.3°F15.2°C 37% 5.9 mph NNE9.5 kmh NNE 12.3 mph19.8 kmh 29.23 in989.8 mb 0.00 in0.0 mm 0.00 in0.0 mm 0.00 in0.0 mm
03:30 PM 88.5°F31.4°C 59.6°F15.3°C 38% 6.9 mph N11.1 kmh N 12.3 mph19.8 kmh 29.23 in989.8 mb 0.00 in0.0 mm 0.00 in0.0 mm 0.00 in0.0 mm
03:35 PM 88.3°F31.3°C 60.7°F15.9°C 40% 3.6 mph NNE5.8 kmh NNE 7.4 mph11.9 kmh 29.23 in989.8 mb 0.00 in0.0 mm 0.00 in0.0 mm 0.00 in0.0 mm
03:40 PM 88.2°F31.2°C 61.1°F16.2°C 40% 4.1 mph NNE6.6 kmh NNE 7.4 mph11.9 kmh 29.23 in989.8 mb 0.00 in0.0 mm 0.00 in0.0 mm 0.00 in0.0 mm
03:45 PM 87.6°F30.9°C 61.4°F16.3°C 42% 4.0 mph NNE6.4 kmh NNE 12.3 mph19.8 kmh 29.22 in989.5 mb 0.00 in0.0 mm 0.00 in0.0 mm 0.00 in0.0 mm
03:50 PM 87.6°F30.9°C 62.0°F16.7°C 42% 3.7 mph NW6.0 kmh NW 9.8 mph15.8 kmh 29.22 in989.5 mb 0.00 in0.0 mm 0.00 in0.0 mm 0.00 in0.0 mm
03:55 PM 87.6°F30.9°C 62.0°F16.7°C 42% 2.6 mph NE4.2 kmh NE 7.4 mph11.9 kmh 29.22 in989.5 mb 0.00 in0.0 mm 0.00 in0.0 mm 0.00 in0.0 mm
04:00 PM 87.9°F31.1°C 59.2°F15.1°C 38% 4.7 mph N7.6 kmh N 7.4 mph11.9 kmh 29.22 in989.5 mb 0.00 in0.0 mm 0.00 in0.0 mm 0.00 in0.0 mm
04:05 PM 88.5°F31.4°C 56.2°F13.4°C 34% 4.5 mph N7.2 kmh N 7.4 mph11.9 kmh 29.21 in989.2 mb 0.00 in0.0 mm 0.00 in0.0 mm 0.00 in0.0 mm
04:10 PM 88.5°F31.4°C 56.3°F13.5°C 34% 3.5 mph NNE5.6 kmh NNE 9.8 mph15.8 kmh 29.21 in989.2 mb 0.00 in0.0 mm 0.00 in0.0 mm 0.00 in0.0 mm
04:15 PM 88.7°F31.5°C 54.6°F12.6°C 32% 3.0 mph N4.8 kmh N 12.3 mph19.8 kmh 29.20 in988.8 mb 0.00 in0.0 mm 0.00 in0.0 mm 0.00 in0.0 mm
04:20 PM 88.9°F31.6°C 55.0°F12.8°C 32% 7.0 mph N11.3 kmh N 15.0 mph24.1 kmh 29.20 in988.8 mb 0.00 in0.0 mm 0.00 in0.0 mm 0.00 in0.0 mm
04:25 PM 89.2°F31.8°C 55.7°F13.2°C 32% 4.5 mph N7.2 kmh N 9.8 mph15.8 kmh 29.20 in988.8 mb 0.00 in0.0 mm 0.00 in0.0 mm 0.00 in0.0 mm
04:30 PM 89.4°F31.9°C 55.6°F13.1°C 32% 5.4 mph NE8.7 kmh NE 9.8 mph15.8 kmh 29.20 in988.8 mb 0.00 in0.0 mm 0.00 in0.0 mm 0.00 in0.0 mm
04:35 PM 89.5°F31.9°C 55.7°F13.2°C 32% 3.5 mph N5.6 kmh N 12.3 mph19.8 kmh 29.19 in988.5 mb 0.00 in0.0 mm 0.00 in0.0 mm 0.00 in0.0 mm
04:40 PM 89.7°F32.1°C 56.0°F13.3°C 32% 5.0 mph NNW8.0 kmh NNW 9.8 mph15.8 kmh 29.19 in988.5 mb 0.00 in0.0 mm 0.00 in0.0 mm 0.00 in0.0 mm
04:45 PM 90.3°F32.4°C 58.4°F14.7°C 34% 5.7 mph NNE9.2 kmh NNE 12.3 mph19.8 kmh 29.19 in988.5 mb 0.00 in0.0 mm 0.00 in0.0 mm 0.00 in0.0 mm
04:50 PM 90.1°F32.3°C 59.4°F15.2°C 36% 4.1 mph NE6.6 kmh NE 9.8 mph15.8 kmh 29.18 in988.1 mb 0.00 in0.0 mm 0.00 in0.0 mm 0.00 in0.0 mm
04:55 PM 90.1°F32.3°C 60.6°F15.9°C 38% 5.4 mph NE8.7 kmh NE 9.8 mph15.8 kmh 29.18 in988.1 mb 0.00 in0.0 mm 0.00 in0.0 mm 0.00 in0.0 mm
05:00 PM 89.8°F32.1°C 59.7°F15.4°C 36% 5.3 mph NE8.5 kmh NE 12.3 mph19.8 kmh 29.18 in988.1 mb 0.00 in0.0 mm 0.00 in0.0 mm 0.00 in0.0 mm
05:05 PM 88.4°F31.3°C 57.7°F14.3°C 36% 5.2 mph E8.4 kmh E 9.8 mph15.8 kmh 29.18 in988.1 mb 0.00 in0.0 mm 0.00 in0.0 mm 0.00 in0.0 mm
05:10 PM 88.4°F31.3°C 58.0°F14.4°C 36% 6.4 mph E10.3 kmh E 12.3 mph19.8 kmh 29.18 in988.1 mb 0.00 in0.0 mm 0.00 in0.0 mm 0.00 in0.0 mm
05:15 PM 88.3°F31.3°C 57.4°F14.1°C 35% 6.7 mph NE10.8 kmh NE 15.0 mph24.1 kmh 29.18 in988.1 mb 0.00 in0.0 mm 0.00 in0.0 mm 0.00 in0.0 mm
05:20 PM 88.3°F31.3°C 58.8°F14.9°C 37% 4.1 mph NNE6.6 kmh NNE 7.4 mph11.9 kmh 29.18 in988.1 mb 0.00 in0.0 mm 0.00 in0.0 mm 0.00 in0.0 mm
05:25 PM 87.7°F30.9°C 60.9°F16.1°C 41% 4.7 mph ENE7.6 kmh ENE 9.8 mph15.8 kmh 29.17 in987.8 mb 0.00 in0.0 mm 0.00 in0.0 mm 0.00 in0.0 mm
05:30 PM 87.6°F30.9°C 61.5°F16.4°C 42% 4.9 mph E7.9 kmh E 12.3 mph19.8 kmh 29.17 in987.8 mb 0.00 in0.0 mm 0.00 in0.0 mm 0.00 in0.0 mm
05:35 PM 87.6°F30.9°C 61.4°F16.3°C 42% 3.3 mph N5.3 kmh N 7.4 mph11.9 kmh 29.17 in987.8 mb 0.00 in0.0 mm 0.00 in0.0 mm 0.00 in0.0 mm
05:40 PM 87.5°F30.8°C 61.7°F16.5°C 42% 5.4 mph NE8.7 kmh NE 12.3 mph19.8 kmh 29.16 in987.5 mb 0.00 in0.0 mm 0.00 in0.0 mm 0.00 in0.0 mm
05:45 PM 86.6°F30.3°C 61.9°F16.6°C 44% 4.9 mph N7.9 kmh N 9.8 mph15.8 kmh 29.16 in987.5 mb 0.00 in0.0 mm 0.00 in0.0 mm 0.00 in0.0 mm
05:50 PM 86.4°F30.2°C 62.7°F17.1°C 45% 4.8 mph NE7.7 kmh NE 9.8 mph15.8 kmh 29.16 in987.5 mb 0.00 in0.0 mm 0.00 in0.0 mm 0.00 in0.0 mm
05:55 PM 86.4°F30.2°C 64.0°F17.8°C 47% 4.4 mph E7.1 kmh E 7.4 mph11.9 kmh 29.17 in987.8 mb 0.00 in0.0 mm 0.00 in0.0 mm 0.00 in0.0 mm
06:00 PM 86.2°F30.1°C 64.9°F18.3°C 49% 5.1 mph NNE8.2 kmh NNE 9.8 mph15.8 kmh 29.16 in987.5 mb 0.00 in0.0 mm 0.00 in0.0 mm 0.00 in0.0 mm
06:05 PM 85.6°F29.8°C 64.8°F18.2°C 50% 4.0 mph NE6.4 kmh NE 9.8 mph15.8 kmh 29.16 in987.5 mb 0.00 in0.0 mm 0.00 in0.0 mm 0.00 in0.0 mm
06:10 PM 85.5°F29.7°C 65.3°F18.5°C 51% 4.0 mph NNE6.4 kmh NNE 7.4 mph11.9 kmh 29.16 in987.5 mb 0.00 in0.0 mm 0.00 in0.0 mm 0.00 in0.0 mm
06:15 PM 85.4°F29.7°C 65.2°F18.4°C 51% 4.2 mph NE6.8 kmh NE 12.3 mph19.8 kmh 29.16 in987.5 mb 0.00 in0.0 mm 0.00 in0.0 mm 0.00 in0.0 mm
06:20 PM 85.3°F29.6°C 64.9°F18.3°C 51% 2.2 mph NE3.5 kmh NE 4.9 mph7.9 kmh 29.16 in987.5 mb 0.00 in0.0 mm 0.00 in0.0 mm 0.00 in0.0 mm
06:25 PM 85.2°F29.6°C 64.6°F18.1°C 50% 2.8 mph N4.5 kmh N 4.9 mph7.9 kmh 29.16 in987.5 mb 0.00 in0.0 mm 0.00 in0.0 mm 0.00 in0.0 mm
06:30 PM 85.1°F29.5°C 64.2°F17.9°C 50% 2.9 mph NNE4.7 kmh NNE 7.4 mph11.9 kmh 29.16 in987.5 mb 0.00 in0.0 mm 0.00 in0.0 mm 0.00 in0.0 mm
06:35 PM 84.9°F29.4°C 64.5°F18.1°C 51% 2.4 mph N3.9 kmh N 7.4 mph11.9 kmh 29.15 in987.1 mb 0.00 in0.0 mm 0.00 in0.0 mm 0.00 in0.0 mm
06:40 PM 84.9°F29.4°C 64.3°F17.9°C 50% 3.7 mph N6.0 kmh N 7.4 mph11.9 kmh 29.15 in987.1 mb 0.00 in0.0 mm 0.00 in0.0 mm 0.00 in0.0 mm
06:45 PM 84.8°F29.3°C 64.3°F17.9°C 50% 3.4 mph N5.5 kmh N 7.4 mph11.9 kmh 29.15 in987.1 mb 0.00 in0.0 mm 0.00 in0.0 mm 0.00 in0.0 mm
06:50 PM 84.7°F29.3°C 64.5°F18.1°C 51% 3.5 mph NNE5.6 kmh NNE 7.4 mph11.9 kmh 29.16 in987.5 mb 0.00 in0.0 mm 0.00 in0.0 mm 0.00 in0.0 mm
06:55 PM 84.7°F29.3°C 64.5°F18.1°C 51% 5.7 mph N9.2 kmh N 9.8 mph15.8 kmh 29.16 in987.5 mb 0.00 in0.0 mm 0.00 in0.0 mm 0.00 in0.0 mm
07:00 PM 84.9°F29.4°C 64.4°F18.0°C 50% 2.8 mph NNE4.5 kmh NNE 9.8 mph15.8 kmh 29.15 in987.1 mb 0.00 in0.0 mm 0.00 in0.0 mm 0.00 in0.0 mm
07:05 PM 85.2°F29.6°C 64.5°F18.1°C 50% 5.6 mph NNE9.0 kmh NNE 9.8 mph15.8 kmh 29.15 in987.1 mb 0.00 in0.0 mm 0.00 in0.0 mm 0.00 in0.0 mm
07:10 PM 85.5°F29.7°C 65.3°F18.5°C 51% 4.3 mph N6.9 kmh N 7.4 mph11.9 kmh 29.15 in987.1 mb 0.00 in0.0 mm 0.00 in0.0 mm 0.00 in0.0 mm
07:15 PM 85.5°F29.7°C 65.3°F18.5°C 51% 5.3 mph NE8.5 kmh NE 9.8 mph15.8 kmh 29.16 in987.5 mb 0.00 in0.0 mm 0.00 in0.0 mm 0.00 in0.0 mm
07:20 PM 85.5°F29.7°C 65.6°F18.7°C 52% 5.1 mph NNE8.2 kmh NNE 12.3 mph19.8 kmh 29.15 in987.1 mb 0.00 in0.0 mm 0.00 in0.0 mm 0.00 in0.0 mm
07:25 PM 85.3°F29.6°C 65.7°F18.7°C 52% 3.8 mph NNE6.1 kmh NNE 7.4 mph11.9 kmh 29.16 in987.5 mb 0.00 in0.0 mm 0.00 in0.0 mm 0.00 in0.0 mm
07:30 PM 85.1°F29.5°C 65.5°F18.6°C 52% 4.5 mph NE7.2 kmh NE 15.0 mph24.1 kmh 29.16 in987.5 mb 0.00 in0.0 mm 0.00 in0.0 mm 0.00 in0.0 mm
07:35 PM 85.1°F29.5°C 65.8°F18.8°C 53% 4.1 mph NE6.6 kmh NE 9.8 mph15.8 kmh 29.16 in987.5 mb 0.00 in0.0 mm 0.00 in0.0 mm 0.00 in0.0 mm
07:40 PM 84.9°F29.4°C 66.2°F19.0°C 54% 3.8 mph NNE6.1 kmh NNE 7.4 mph11.9 kmh 29.16 in987.5 mb 0.00 in0.0 mm 0.00 in0.0 mm 0.00 in0.0 mm
07:45 PM 84.4°F29.1°C 66.0°F18.9°C 54% 1.8 mph NNE2.9 kmh NNE 4.9 mph7.9 kmh 29.16 in987.5 mb 0.00 in0.0 mm 0.00 in0.0 mm 0.00 in0.0 mm
07:50 PM 84.0°F28.9°C 65.8°F18.8°C 54% 2.9 mph NE4.7 kmh NE 7.4 mph11.9 kmh 29.16 in987.5 mb 0.00 in0.0 mm 0.00 in0.0 mm 0.00 in0.0 mm
07:55 PM 84.0°F28.9°C 65.6°F18.7°C 54% 5.5 mph NNE8.9 kmh NNE 9.8 mph15.8 kmh 29.16 in987.5 mb 0.00 in0.0 mm 0.00 in0.0 mm 0.00 in0.0 mm
08:00 PM 83.9°F28.8°C 66.0°F18.9°C 55% 3.1 mph NE5.0 kmh NE 9.8 mph15.8 kmh 29.16 in987.5 mb 0.00 in0.0 mm 0.00 in0.0 mm 0.00 in0.0 mm
08:05 PM 83.7°F28.7°C 65.8°F18.8°C 55% 3.8 mph NNE6.1 kmh NNE 9.8 mph15.8 kmh 29.16 in987.5 mb 0.00 in0.0 mm 0.00 in0.0 mm 0.00 in0.0 mm
08:10 PM 83.1°F28.4°C 65.6°F18.7°C 56% 3.4 mph NE5.5 kmh NE 7.4 mph11.9 kmh 29.16 in987.5 mb 0.00 in0.0 mm 0.00 in0.0 mm 0.00 in0.0 mm
08:15 PM 83.1°F28.4°C 65.8°F18.8°C 56% 2.7 mph NE4.3 kmh NE 4.9 mph7.9 kmh 29.16 in987.5 mb 0.00 in0.0 mm 0.00 in0.0 mm 0.00 in0.0 mm
08:20 PM 83.0°F28.3°C 65.7°F18.7°C 56% 3.1 mph NNE5.0 kmh NNE 7.4 mph11.9 kmh 29.16 in987.5 mb 0.00 in0.0 mm 0.00 in0.0 mm 0.00 in0.0 mm
08:25 PM 82.7°F28.2°C 65.6°F18.7°C 56% 2.0 mph NNE3.2 kmh NNE 4.9 mph7.9 kmh 29.15 in987.1 mb 0.00 in0.0 mm 0.00 in0.0 mm 0.00 in0.0 mm
08:30 PM 82.4°F28.0°C 65.6°F18.7°C 57% 2.3 mph N3.7 kmh N 4.9 mph7.9 kmh 29.15 in987.1 mb 0.00 in0.0 mm 0.00 in0.0 mm 0.00 in0.0 mm
08:35 PM 82.4°F28.0°C 65.7°F18.7°C 57% 1.9 mph NE3.1 kmh NE 4.9 mph7.9 kmh 29.15 in987.1 mb 0.00 in0.0 mm 0.00 in0.0 mm 0.00 in0.0 mm
08:40 PM 82.2°F27.9°C 65.5°F18.6°C 57% 1.1 mph NE1.8 kmh NE 4.9 mph7.9 kmh 29.16 in987.5 mb 0.00 in0.0 mm 0.00 in0.0 mm 0.00 in0.0 mm
08:45 PM 82.2°F27.9°C 65.6°F18.7°C 57% 1.1 mph NNE1.8 kmh NNE 4.9 mph7.9 kmh 29.15 in987.1 mb 0.00 in0.0 mm 0.00 in0.0 mm 0.00 in0.0 mm
08:50 PM 82.2°F27.9°C 66.4°F19.1°C 59% 2.1 mph NE3.4 kmh NE 7.4 mph11.9 kmh 29.15 in987.1 mb 0.00 in0.0 mm 0.00 in0.0 mm 0.00 in0.0 mm
08:55 PM 82.2°F27.9°C 66.4°F19.1°C 59% 1.2 mph NNE1.9 kmh NNE 4.9 mph7.9 kmh 29.15 in987.1 mb 0.00 in0.0 mm 0.00 in0.0 mm 0.00 in0.0 mm
09:00 PM 82.0°F27.8°C 66.6°F19.2°C 60% 3.3 mph NNW5.3 kmh NNW 7.4 mph11.9 kmh 29.15 in987.1 mb 0.00 in0.0 mm 0.00 in0.0 mm 0.00 in0.0 mm
09:05 PM 81.9°F27.7°C 66.2°F19.0°C 59% 1.9 mph N3.1 kmh N 4.9 mph7.9 kmh 29.14 in986.8 mb 0.00 in0.0 mm 0.00 in0.0 mm 0.00 in0.0 mm
09:10 PM 81.7°F27.6°C 66.4°F19.1°C 60% 0.7 mph N1.1 kmh N 2.5 mph4.0 kmh 29.14 in986.8 mb 0.00 in0.0 mm 0.00 in0.0 mm 0.00 in0.0 mm
09:15 PM 81.6°F27.6°C 66.4°F19.1°C 60% 2.3 mph N3.7 kmh N 4.9 mph7.9 kmh 29.14 in986.8 mb 0.00 in0.0 mm 0.00 in0.0 mm 0.00 in0.0 mm
09:20 PM 81.5°F27.5°C 66.6°F19.2°C 61% 1.9 mph NW3.1 kmh NW 4.9 mph7.9 kmh 29.14 in986.8 mb 0.00 in0.0 mm 0.00 in0.0 mm 0.00 in0.0 mm
09:25 PM 81.5°F27.5°C 66.7°F19.3°C 61% 2.4 mph N3.9 kmh N 4.9 mph7.9 kmh 29.14 in986.8 mb 0.00 in0.0 mm 0.00 in0.0 mm 0.00 in0.0 mm
09:30 PM 81.3°F27.4°C 66.5°F19.2°C 61% 1.0 mph N1.6 kmh N 2.5 mph4.0 kmh 29.14 in986.8 mb 0.00 in0.0 mm 0.00 in0.0 mm 0.00 in0.0 mm
09:35 PM 81.3°F27.4°C 66.5°F19.2°C 61% 1.4 mph NNW2.3 kmh NNW 4.9 mph7.9 kmh 29.14 in986.8 mb 0.00 in0.0 mm 0.00 in0.0 mm 0.00 in0.0 mm
09:40 PM 81.3°F27.4°C 66.5°F19.2°C 61% 1.7 mph NNW2.7 kmh NNW 4.9 mph7.9 kmh 29.14 in986.8 mb 0.00 in0.0 mm 0.00 in0.0 mm 0.00 in0.0 mm
09:45 PM 81.1°F27.3°C 66.9°F19.4°C 62% 1.1 mph NNW1.8 kmh NNW 4.9 mph7.9 kmh 29.14 in986.8 mb 0.00 in0.0 mm 0.00 in0.0 mm 0.00 in0.0 mm
09:50 PM 80.9°F27.2°C 66.6°F19.2°C 62% 0.9 mph NNE1.4 kmh NNE 2.5 mph4.0 kmh 29.14 in986.8 mb 0.00 in0.0 mm 0.00 in0.0 mm 0.00 in0.0 mm
09:55 PM 80.8°F27.1°C 66.8°F19.3°C 63% 1.0 mph N1.6 kmh N 2.5 mph4.0 kmh 29.15 in987.1 mb 0.00 in0.0 mm 0.00 in0.0 mm 0.00 in0.0 mm
10:00 PM 80.8°F27.1°C 67.5°F19.7°C 64% 0.5 mph N0.8 kmh N 2.5 mph4.0 kmh 29.15 in987.1 mb 0.00 in0.0 mm 0.00 in0.0 mm 0.00 in0.0 mm
10:05 PM 80.6°F27.0°C 67.5°F19.7°C 65% 1.8 mph NNE2.9 kmh NNE 4.9 mph7.9 kmh 29.15 in987.1 mb 0.00 in0.0 mm 0.00 in0.0 mm 0.00 in0.0 mm
10:10 PM 79.7°F26.5°C 66.9°F19.4°C 65% 0.8 mph N1.3 kmh N 4.9 mph7.9 kmh 29.14 in986.8 mb 0.00 in0.0 mm 0.00 in0.0 mm 0.00 in0.0 mm
10:15 PM 79.7°F26.5°C 66.9°F19.4°C 65% 1.9 mph N3.1 kmh N 4.9 mph7.9 kmh 29.15 in987.1 mb 0.00 in0.0 mm 0.00 in0.0 mm 0.00 in0.0 mm
10:20 PM 79.7°F26.5°C 66.9°F19.4°C 65% 0.7 mph N1.1 kmh N 2.5 mph4.0 kmh 29.15 in987.1 mb 0.00 in0.0 mm 0.00 in0.0 mm 0.00 in0.0 mm
10:25 PM 79.5°F26.4°C 67.1°F19.5°C 66% 0.9 mph NNE1.4 kmh NNE 2.5 mph4.0 kmh 29.14 in986.8 mb 0.00 in0.0 mm 0.00 in0.0 mm 0.00 in0.0 mm
10:30 PM 79.2°F26.2°C 67.1°F19.5°C 66% 1.2 mph NNE1.9 kmh NNE 2.5 mph4.0 kmh 29.14 in986.8 mb 0.00 in0.0 mm 0.00 in0.0 mm 0.00 in0.0 mm
10:35 PM 79.2°F26.2°C 67.3°F19.6°C 67% 0.3 mph N0.5 kmh N 2.5 mph4.0 kmh 29.15 in987.1 mb 0.00 in0.0 mm 0.00 in0.0 mm 0.00 in0.0 mm
10:40 PM 79.2°F26.2°C 67.3°F19.6°C 67% 1.2 mph NNW1.9 kmh NNW 2.5 mph4.0 kmh 29.14 in986.8 mb 0.00 in0.0 mm 0.00 in0.0 mm 0.00 in0.0 mm
10:45 PM 79.2°F26.2°C 67.3°F19.6°C 67% 1.2 mph NW1.9 kmh NW 4.9 mph7.9 kmh 29.14 in986.8 mb 0.00 in0.0 mm 0.00 in0.0 mm 0.00 in0.0 mm
10:50 PM 79.2°F26.2°C 67.3°F19.6°C 67% 1.9 mph NNW3.1 kmh NNW 4.9 mph7.9 kmh 29.14 in986.8 mb 0.00 in0.0 mm 0.00 in0.0 mm 0.00 in0.0 mm
10:55 PM 79.2°F26.2°C 67.3°F19.6°C 67% 1.4 mph NNE2.3 kmh NNE 4.9 mph7.9 kmh 29.14 in986.8 mb 0.00 in0.0 mm 0.00 in0.0 mm 0.00 in0.0 mm
11:00 PM 79.2°F26.2°C 67.3°F19.6°C 67% 2.4 mph NNE3.9 kmh NNE 7.4 mph11.9 kmh 29.14 in986.8 mb 0.00 in0.0 mm 0.00 in0.0 mm 0.00 in0.0 mm
11:05 PM 79.2°F26.2°C 67.6°F19.8°C 68% 0.8 mph N1.3 kmh N 2.5 mph4.0 kmh 29.15 in987.1 mb 0.00 in0.0 mm 0.00 in0.0 mm 0.00 in0.0 mm
11:10 PM 79.0°F26.1°C 67.5°F19.7°C 68% 1.1 mph NW1.8 kmh NW 4.9 mph7.9 kmh 29.15 in987.1 mb 0.00 in0.0 mm 0.00 in0.0 mm 0.00 in0.0 mm
11:15 PM 79.0°F26.1°C 67.5°F19.7°C 68% 0.9 mph NNW1.4 kmh NNW 4.9 mph7.9 kmh 29.14 in986.8 mb 0.00 in0.0 mm 0.00 in0.0 mm 0.00 in0.0 mm
11:25 PM 78.9°F26.1°C 68.3°F20.2°C 70% 0.5 mph NW0.8 kmh NW 2.5 mph4.0 kmh 29.15 in987.1 mb 0.00 in0.0 mm 0.00 in0.0 mm 0.00 in0.0 mm
11:30 PM 78.6°F25.9°C 68.5°F20.3°C 71% 0.8 mph N1.3 kmh N 2.5 mph4.0 kmh 29.15 in987.1 mb 0.00 in0.0 mm 0.00 in0.0 mm 0.00 in0.0 mm
11:35 PM 78.4°F25.8°C 68.6°F20.3°C 72% 1.1 mph NW1.8 kmh NW 4.9 mph7.9 kmh 29.15 in987.1 mb 0.00 in0.0 mm 0.00 in0.0 mm 0.00 in0.0 mm
11:40 PM 78.2°F25.7°C 68.8°F20.4°C 73% 2.6 mph NW4.2 kmh NW 4.9 mph7.9 kmh 29.16 in987.5 mb 0.00 in0.0 mm 0.00 in0.0 mm 0.00 in0.0 mm
11:45 PM 78.0°F25.6°C 68.6°F20.3°C 73% 1.4 mph NW2.3 kmh NW 4.9 mph7.9 kmh 29.16 in987.5 mb 0.00 in0.0 mm 0.00 in0.0 mm 0.00 in0.0 mm
11:50 PM 77.2°F25.1°C 67.9°F19.9°C 73% 2.5 mph NW4.0 kmh NW 4.9 mph7.9 kmh 29.15 in987.1 mb 0.00 in0.0 mm 0.00 in0.0 mm 0.00 in0.0 mm
11:55 PM 77.2°F25.1°C 67.9°F19.9°C 73% 0.4 mph NW0.6 kmh NW 2.5 mph4.0 kmh 29.16 in987.5 mb 0.00 in0.0 mm 0.00 in0.0 mm 0.00 in0.0 mm